Latest Weather Observations for Coldstream

IDV60801

Issued at 10:31 pm EST Saturday 29 August 2015 (issued every 30 minutes, with the page automatically refreshed every 10 minutes)

About weather observations | Map of weather stations | Latest weather observations for VIC | Other Formats
Station Details ID: 086383 Name: COLDSTREAM Lat: -37.72 Lon: 145.41 Height: 83.0 m
Data from the previous 72 hours. | See also: Recent months at Coldstream
Date/Time
EST
Temp
°C
App
Temp
°C
Dew
Point
Rel
Hum
%
Delta-T
°C
Wind Press
QNH
hPa
Press
MSL
hPa
Rain
since 9 am
mm
Dir
 
Spd
km/h
Gust
km/h
Spd
kts
Gust
kts
29/10:30pm 8.3 7.8 7.7 96 0.3 CALM 0 7 0 4 1025.3 1025.5 1.6
29/10:00pm 8.3 7.7 7.4 94 0.4 CALM 0 0 0 0 1025.5 1025.7 1.6
29/09:30pm 8.5 6.2 7.4 93 0.5 WSW 9 13 5 7 1025.5 1025.7 1.6
29/09:00pm 8.4 7.3 7.0 91 0.7 SSW 2 7 1 4 1025.4 1025.6 1.6
29/08:30pm 8.7 6.1 7.6 93 0.5 SW 11 19 6 10 1025.4 1025.6 1.6
29/08:00pm 8.4 6.6 7.3 93 0.5 SW 6 13 3 7 1025.3 1025.5 1.6
29/07:30pm 8.6 6.3 7.5 93 0.5 SW 9 13 5 7 1025.3 1025.5 1.6
29/07:00pm 8.9 6.7 7.8 93 0.5 SSW 9 15 5 8 1025.3 1025.5 1.4
29/06:30pm 8.9 6.6 7.5 91 0.7 SSW 9 15 5 8 1025.0 1025.2 1.2
29/06:00pm 9.1 6.1 7.5 90 0.8 SW 13 20 7 11 1024.9 1025.1 1.2
29/05:30pm 9.4 5.2 7.5 88 0.9 SW 19 30 10 16 1024.6 1024.8 1.2
29/05:00pm 9.8 6.1 7.9 88 0.9 SW 17 24 9 13 1024.5 1024.7 1.2
29/04:30pm 9.8 6.5 8.2 90 0.8 SSW 15 24 8 13 1024.4 1024.6 1.2
29/04:00pm 10.2 7.3 8.0 86 1.1 SSW 13 26 7 14 1024.2 1024.4 1.2
29/03:30pm 10.2 7.2 7.8 85 1.2 SSW 13 24 7 13 1024.3 1024.5 1.0
29/03:00pm 10.1 6.4 8.0 87 1.0 SW 17 30 9 16 1024.4 1024.6 1.0
29/02:30pm 9.8 6.5 8.1 89 0.8 SW 15 24 8 13 1024.5 1024.7 1.0
29/02:00pm 9.6 6.2 7.5 87 1.0 SW 15 24 8 13 1024.7 1024.9 0.8
29/01:30pm 9.1 6.6 8.0 93 0.5 W 11 17 6 9 1024.8 1025.0 0.8
29/01:00pm 8.6 5.2 7.8 95 0.4 WSW 15 22 8 12 1025.3 1025.5 0.8
29/12:30pm 8.3 4.4 7.2 93 0.5 W 17 24 9 13 1025.8 1026.0 0.6
29/12:00pm 8.7 6.4 7.5 92 0.6 WNW 9 11 5 6 1026.0 1026.2 0.4
29/11:30am 8.3 6.4 6.6 89 0.8 WNW 6 11 3 6 1026.3 1026.5 0.4
29/11:00am 8.1 5.5 6.1 87 0.9 WNW 9 15 5 8 1026.2 1026.4 0.0
29/10:30am 7.3 5.8 5.1 86 1.0 WNW 2 7 1 4 1026.3 1026.5 0.0
29/10:00am 6.4 4.9 5.0 91 0.6 NW 2 7 1 4 1026.7 1026.8 0.0
29/09:30am 5.8 4.8 5.7 99 0.0 CALM 0 7 0 4 1026.9 1027.0 0.0
29/09:00am 4.6 2.2 4.5 99 0.0 ENE 6 9 3 5 1027.1 1027.2 1.2
29/08:30am 4.0 2.3 3.9 99 0.0 SSW 2 6 1 3 1027.0 1027.1 1.2
29/08:00am 1.6 -0.2 1.5 99 0.0 CALM 0 0 0 0 1026.7 1026.8 1.2
29/07:30am 0.9 -1.0 0.8 99 0.0 CALM 0 0 0 0 1026.8 1026.9 1.2
29/07:00am 0.7 -1.2 0.6 99 0.0 CALM 0 0 0 0 1026.4 1026.6 1.2
29/06:30am 0.3 -1.7 0.2 99 0.0 CALM 0 0 0 0 1026.1 1026.3 1.2
29/06:00am 0.0 -2.0 -0.1 99 0.0 CALM 0 0 0 0 1026.0 1026.2 1.2
29/05:30am 0.6 -1.3 0.5 99 0.0 CALM 0 0 0 0 1025.9 1026.1 1.2
29/05:00am 0.3 -2.0 0.2 99 0.0 S 2 7 1 4 1025.7 1025.9 1.2
29/04:30am 1.2 -0.6 1.1 99 0.0 CALM 0 6 0 3 1025.6 1025.8 1.2
29/04:00am 2.5 0.9 2.4 99 0.0 CALM 0 6 0 3 1025.6 1025.8 1.2
29/03:30am 3.0 1.5 2.9 99 0.0 CALM 0 0 0 0 1025.6 1025.8 1.2
29/03:00am 1.8 -0.3 1.7 99 0.0 SSE 2 7 1 4 1025.9 1026.1 1.0
29/02:30am 1.2 -1.0 1.1 99 0.0 SW 2 6 1 3 1025.9 1026.1 1.0
29/02:00am 1.3 -0.5 1.2 99 0.0 CALM 0 0 0 0 1026.0 1026.2 1.0
29/01:30am 1.2 -0.6 1.1 99 0.0 CALM 0 6 0 3 1026.2 1026.4 1.0
29/01:00am 0.5 -1.5 0.2 98 0.1 CALM 0 0 0 0 1026.1 1026.3 1.0
29/12:30am 0.7 -1.2 0.4 98 0.1 CALM 0 0 0 0 1026.0 1026.2 1.0
29/12:00am 1.2 -0.6 0.9 98 0.1 CALM 0 0 0 0 1026.0 1026.2 1.0
 
Date/Time
EST
Temp
°C
App
Temp
°C
Dew
Point
Rel
Hum
%
Delta-T
°C
Wind Press
QNH
hPa
Press
MSL
hPa
Rain
since 9 am
mm
Dir
 
Spd
km/h
Gust
km/h
Spd
kts
Gust
kts
28/11:30pm 1.6 -0.2 1.2 97 0.2 CALM 0 0 0 0 1026.0 1026.2 1.0
28/11:00pm 2.0 -0.5 1.6 97 0.2 SE 4 7 2 4 1026.2 1026.4 1.0
28/10:30pm 2.5 0.8 1.9 96 0.2 CALM 0 0 0 0 1026.3 1026.5 1.0
28/10:00pm 3.6 2.0 2.7 94 0.4 CALM 0 0 0 0 1026.6 1026.7 0.8
28/09:30pm 4.4 2.2 3.4 93 0.4 SW 4 7 2 4 1026.6 1026.7 0.8
28/09:00pm 6.1 4.9 4.7 91 0.6 CALM 0 0 0 0 1026.2 1026.4 0.8
28/08:30pm 6.4 4.9 4.9 90 0.7 S 2 7 1 4 1025.9 1026.1 0.8
28/08:00pm 7.1 5.9 4.6 84 1.1 CALM 0 4 0 2 1025.6 1025.8 0.8
28/07:30pm 8.2 6.7 4.8 79 1.5 W 2 7 1 4 1025.6 1025.8 0.8
28/07:00pm 8.7 6.4 4.7 76 1.8 SW 6 7 3 4 1025.5 1025.7 0.8
28/06:30pm 8.8 5.2 5.2 78 1.6 WSW 13 17 7 9 1025.1 1025.3 0.8
28/06:00pm 9.4 6.0 5.8 78 1.6 WSW 13 19 7 10 1024.7 1024.9 0.8
28/05:30pm 10.0 6.3 6.5 79 1.6 SW 15 20 8 11 1024.4 1024.6 0.8
28/05:00pm 11.0 8.7 7.5 79 1.7 SSW 9 15 5 8 1024.2 1024.4 0.8
28/04:30pm 11.3 9.2 8.2 81 1.5 SW 9 13 5 7 1024.0 1024.2 0.8
28/04:00pm 11.1 10.3 8.3 83 1.4 ESE 2 7 1 4 1024.0 1024.2 0.8
28/03:30pm 11.9 10.4 9.1 83 1.4 S 7 11 4 6 1024.0 1024.2 0.8
28/03:00pm 11.9 9.6 9.1 83 1.4 SSW 11 20 6 11 1024.2 1024.4 0.8
28/02:30pm 10.8 8.4 8.7 87 1.0 WSW 11 15 6 8 1024.2 1024.4 0.8
28/02:00pm 12.1 8.5 8.2 77 1.9 SW 17 26 9 14 1024.1 1024.3 0.0
28/01:30pm 13.3 11.2 6.6 64 3.2 W 7 15 4 8 1024.1 1024.3 0.0
28/01:00pm 13.1 10.4 7.5 69 2.7 SW 11 17 6 9 1024.5 1024.7 0.0
28/12:30pm 11.8 9.6 7.7 76 2.0 SSW 9 17 5 9 1025.0 1025.2 0.0
28/12:00pm 11.8 8.8 7.7 76 2.0 SSE 13 20 7 11 1025.3 1025.5 0.0
28/11:30am 11.4 8.1 8.1 80 1.6 SSW 15 28 8 15 1025.6 1025.8 0.0
28/11:00am 10.6 7.3 8.0 84 1.3 SW 15 24 8 13 1025.7 1025.9 0.0
28/10:30am 10.7 7.9 8.5 86 1.1 SW 13 20 7 11 1025.6 1025.8 0.0
28/10:00am 9.4 6.5 8.0 91 0.7 SW 13 20 7 11 1025.6 1025.8 0.0
28/09:30am 9.3 6.9 8.5 95 0.4 W 11 15 6 8 1025.5 1025.7 0.0
28/09:00am 8.9 6.9 8.8 99 0.0 W 9 11 5 6 1025.6 1025.8 42.8
28/08:30am 8.8 7.8 8.7 99 0.0 NW 4 9 2 5 1025.5 1025.7 42.8
28/08:00am 8.6 8.3 8.5 99 0.0 CALM 0 0 0 0 1025.2 1025.4 42.8
28/07:30am 6.9 6.2 6.8 99 0.0 CALM 0 0 0 0 1024.9 1025.1 42.8
28/07:00am 7.2 6.5 7.1 99 0.0 CALM 0 0 0 0 1024.8 1025.0 42.8
28/06:30am 7.3 6.7 7.2 99 0.0 CALM 0 0 0 0 1024.3 1024.5 42.8
28/06:00am 6.9 6.2 6.8 99 0.0 CALM 0 0 0 0 1024.2 1024.4 42.4
28/05:30am 6.7 5.9 6.6 99 0.0 CALM 0 0 0 0 1024.0 1024.2 42.4
28/05:00am 6.3 5.4 6.2 99 0.0 CALM 0 0 0 0 1023.8 1024.0 42.4
28/04:30am 5.8 4.4 5.7 99 0.0 SSE 2 6 1 3 1023.8 1024.0 42.2
28/04:00am 4.2 2.8 3.8 97 0.2 CALM 0 0 0 0 1023.7 1023.9 42.2
28/03:30am 5.3 4.2 4.9 97 0.2 CALM 0 0 0 0 1023.7 1023.9 42.2
28/03:00am 5.2 4.0 4.5 95 0.3 CALM 0 0 0 0 1023.8 1024.0 42.2
28/02:30am 5.9 4.8 4.9 93 0.4 CALM 0 0 0 0 1023.7 1023.9 42.2
28/02:00am 7.3 6.3 5.6 89 0.8 CALM 0 0 0 0 1023.5 1023.7 42.2
28/01:30am 9.0 6.4 6.3 83 1.2 S 9 15 5 8 1023.6 1023.8 42.2
28/01:00am 9.6 7.6 7.2 85 1.1 SW 7 11 4 6 1023.4 1023.6 42.2
28/12:30am 9.8 7.1 7.2 84 1.2 S 11 19 6 10 1023.2 1023.4 42.2
28/12:00am 10.2 7.6 7.8 85 1.2 SSW 11 19 6 10 1023.0 1023.2 42.2
 
Date/Time
EST
Temp
°C
App
Temp
°C
Dew
Point
Rel
Hum
%
Delta-T
°C
Wind Press
QNH
hPa
Press
MSL
hPa
Rain
since 9 am
mm
Dir
 
Spd
km/h
Gust
km/h
Spd
kts
Gust
kts
27/11:30pm 10.3 8.6 8.4 88 0.9 SSW 7 13 4 7 1022.8 1023.0 42.2
27/11:00pm 10.4 6.8 8.3 87 1.0 S 17 20 9 11 1022.5 1022.7 42.2
27/10:30pm 10.4 7.7 8.8 90 0.8 S 13 17 7 9 1022.3 1022.5 42.2
27/10:00pm 10.5 9.7 9.7 95 0.4 S 4 13 2 7 1022.2 1022.4 42.2
27/09:30pm 10.6 8.9 9.7 94 0.5 S 9 17 5 9 1022.1 1022.3 42.2
27/09:00pm 10.8 9.0 9.4 91 0.7 S 9 17 5 9 1021.9 1022.1 41.8
27/08:30pm 10.9 9.2 9.8 93 0.6 S 9 17 5 9 1021.6 1021.7 41.8
27/08:00pm 10.8 8.7 9.7 93 0.6 S 11 17 6 9 1021.4 1021.5 41.8
27/07:30pm 10.8 8.7 9.7 93 0.6 SSE 11 19 6 10 1021.0 1021.1 41.8
27/07:00pm 10.8 8.0 10.0 95 0.4 S 15 22 8 12 1020.7 1020.8 41.6
27/06:30pm 10.5 8.9 10.2 98 0.2 SSW 9 15 5 8 1020.3 1020.4 40.8
27/06:00pm 10.5 9.3 10.3 99 0.1 SSW 7 9 4 5 1019.9 1020.0 39.6
27/05:30pm 10.5 8.9 10.3 99 0.1 S 9 15 5 8 1019.5 1019.6 38.6
27/05:00pm 10.1 10.1 9.9 99 0.1 CALM 0 0 0 0 1019.3 1019.4 36.8
27/04:30pm 10.2 10.3 10.0 99 0.1 CALM 0 0 0 0 1019.3 1019.4 35.2
27/04:00pm 10.1 8.0 9.9 99 0.1 NE 11 15 6 8 1019.2 1019.3 31.4
27/03:30pm 10.2 8.9 10.0 99 0.1 N 7 11 4 6 1019.3 1019.4 23.2
27/03:00pm 10.3 9.0 10.1 99 0.1 NW 7 11 4 6 1019.6 1019.7 18.8
27/02:30pm 10.3 9.0 10.1 99 0.1 WNW 7 11 4 6 1019.6 1019.7 16.4
27/02:00pm 10.4 8.8 10.2 99 0.1 W 9 11 5 6 1019.8 1019.9 13.6
27/01:30pm 10.3 8.3 10.1 99 0.1 WNW 11 15 6 8 1019.9 1020.0 11.0
27/01:00pm 10.6 9.1 10.4 99 0.1 W 9 15 5 8 1020.2 1020.3 8.8
27/12:30pm 10.5 9.3 10.3 99 0.1 WNW 7 11 4 6 1020.3 1020.4 6.6
27/12:00pm 10.4 9.7 10.2 99 0.1 NW 4 7 2 4 1020.7 1020.8 4.8
27/11:30am 10.1 10.1 9.9 99 0.1 CALM 0 0 0 0 1021.0 1021.1 3.8
27/11:00am 9.9 9.9 9.8 99 0.1 CALM 0 4 0 2 1021.2 1021.3 3.2
27/10:30am 9.8 9.8 9.7 99 0.1 CALM 0 0 0 0 1021.4 1021.5 2.0
27/10:00am 9.5 8.3 9.4 99 0.0 WNW 6 9 3 5 1021.4 1021.5 1.0
27/09:30am 9.8 8.4 9.7 99 0.1 W 7 11 4 6 1021.4 1021.5 0.4
27/09:00am 9.9 9.9 9.8 99 0.1 CALM 0 0 0 0 1021.6 1021.7 3.6
27/08:30am 9.7 9.6 9.6 99 0.1 CALM 0 0 0 0 1021.5 1021.6 3.6
27/08:00am 9.5 8.3 9.4 99 0.0 SSE 6 9 3 5 1021.2 1021.3 3.4
27/07:30am 9.4 9.3 9.3 99 0.0 CALM 0 0 0 0 1021.1 1021.2 3.2
27/07:00am 9.3 9.1 9.2 99 0.0 CALM 0 0 0 0 1021.0 1021.1 3.2
27/06:30am 9.2 9.0 9.1 99 0.0 CALM 0 0 0 0 1020.8 1020.9 3.0
27/06:00am 8.9 8.6 8.8 99 0.0 CALM 0 0 0 0 1020.4 1020.5 2.6
27/05:30am 9.2 9.0 9.1 99 0.0 CALM 0 0 0 0 1020.7 1020.8 1.8
27/05:00am 9.2 9.0 9.1 99 0.0 CALM 0 0 0 0 1020.5 1020.6 1.0
27/04:30am 9.0 8.8 8.9 99 0.0 CALM 0 0 0 0 1020.5 1020.6 0.8
27/04:00am 9.0 8.8 8.9 99 0.0 CALM 0 0 0 0 1020.7 1020.8 0.6
27/03:30am 9.1 8.8 8.8 98 0.1 CALM 0 0 0 0 1020.7 1020.8 0.6
27/03:00am 9.0 8.7 8.7 98 0.1 CALM 0 0 0 0 1021.0 1021.1 0.4
27/02:30am 9.0 8.7 8.7 98 0.1 CALM 0 0 0 0 1021.3 1021.4 0.2
27/02:00am 8.9 8.6 8.5 97 0.2 CALM 0 0 0 0 1021.6 1021.7 0.0
27/01:30am 8.9 8.6 8.5 97 0.2 CALM 0 0 0 0 1021.9 1022.1 0.0
27/01:00am 8.8 8.4 8.2 96 0.3 CALM 0 0 0 0 1022.1 1022.3 0.0
27/12:30am 8.6 8.1 8.0 96 0.3 CALM 0 0 0 0 1022.2 1022.4 0.0
27/12:00am 8.4 7.8 7.6 95 0.4 CALM 0 0 0 0 1022.3 1022.5 0.0
 
Date/Time
EST
Temp
°C
App
Temp
°C
Dew
Point
Rel
Hum
%
Delta-T
°C
Wind Press
QNH
hPa
Press
MSL
hPa
Rain
since 9 am
mm
Dir
 
Spd
km/h
Gust
km/h
Spd
kts
Gust
kts
26/11:30pm 8.4 7.8 7.5 94 0.4 CALM 0 0 0 0 1022.5 1022.7 0.0
26/11:00pm 9.1 8.3 8.2 94 0.4 ESE 2 6 1 3 1022.9 1023.1 0.0

Other Formats:

Comma delimited format used in spreadsheet applications
http://www.bom.gov.au/fwo/IDV60801/IDV60801.94864.axf

JavaScript Object Notation format (JSON) in row-major order
http://www.bom.gov.au/fwo/IDV60801/IDV60801.94864.json